sensor_id;sensor_type;location;lat;lon;timestamp;temperature;humidity
14210;DHT22;7188;56.070;12.698;2022-10-16T00:01:13;13.40;99.90
14210;DHT22;7188;56.070;12.698;2022-10-16T00:03:39;13.40;99.90
14210;DHT22;7188;56.070;12.698;2022-10-16T00:06:06;13.40;99.90
14210;DHT22;7188;56.070;12.698;2022-10-16T00:08:31;13.40;99.90
14210;DHT22;7188;56.070;12.698;2022-10-16T00:11:11;13.50;99.90
14210;DHT22;7188;56.070;12.698;2022-10-16T00:13:38;13.50;99.90
14210;DHT22;7188;56.070;12.698;2022-10-16T00:16:05;13.50;99.90
14210;DHT22;7188;56.070;12.698;2022-10-16T00:18:31;13.50;99.90
14210;DHT22;7188;56.070;12.698;2022-10-16T00:21:06;13.50;99.90
14210;DHT22;7188;56.070;12.698;2022-10-16T00:23:32;13.50;99.90
14210;DHT22;7188;56.070;12.698;2022-10-16T00:26:00;13.50;99.90
14210;DHT22;7188;56.070;12.698;2022-10-16T00:28:26;13.50;99.90
14210;DHT22;7188;56.070;12.698;2022-10-16T00:30:52;13.50;99.90
14210;DHT22;7188;56.070;12.698;2022-10-16T00:33:18;13.40;99.90
14210;DHT22;7188;56.070;12.698;2022-10-16T00:36:03;13.40;99.90
14210;DHT22;7188;56.070;12.698;2022-10-16T00:38:29;13.40;99.90
14210;DHT22;7188;56.070;12.698;2022-10-16T00:40:55;13.30;99.90
14210;DHT22;7188;56.070;12.698;2022-10-16T00:46:03;13.20;99.90
14210;DHT22;7188;56.070;12.698;2022-10-16T00:48:30;13.10;99.90
14210;DHT22;7188;56.070;12.698;2022-10-16T00:50:57;13.10;99.90
14210;DHT22;7188;56.070;12.698;2022-10-16T00:53:24;13.00;99.90
14210;DHT22;7188;56.070;12.698;2022-10-16T00:55:50;13.00;99.90
14210;DHT22;7188;56.070;12.698;2022-10-16T00:58:16;13.00;99.90
14210;DHT22;7188;56.070;12.698;2022-10-16T01:00:42;12.90;99.90
14210;DHT22;7188;56.070;12.698;2022-10-16T01:03:26;12.90;99.90
14210;DHT22;7188;56.070;12.698;2022-10-16T01:06:16;12.90;99.90
14210;DHT22;7188;56.070;12.698;2022-10-16T01:14:46;12.80;99.90
14210;DHT22;7188;56.070;12.698;2022-10-16T01:18:03;12.80;99.90
14210;DHT22;7188;56.070;12.698;2022-10-16T01:20:22;12.80;99.90
14210;DHT22;7188;56.070;12.698;2022-10-16T01:23:02;12.70;99.90
14210;DHT22;7188;56.070;12.698;2022-10-16T01:25:59;12.70;99.90
14210;DHT22;7188;56.070;12.698;2022-10-16T01:28:36;12.60;99.90
14210;DHT22;7188;56.070;12.698;2022-10-16T01:31:04;12.60;99.90
14210;DHT22;7188;56.070;12.698;2022-10-16T01:34:01;12.60;99.90
14210;DHT22;7188;56.070;12.698;2022-10-16T01:37:09;12.50;99.90
14210;DHT22;7188;56.070;12.698;2022-10-16T01:39:36;12.50;99.90
14210;DHT22;7188;56.070;12.698;2022-10-16T01:42:08;12.50;99.90
14210;DHT22;7188;56.070;12.698;2022-10-16T01:44:35;12.50;99.90
14210;DHT22;7188;56.070;12.698;2022-10-16T01:47:02;12.40;99.90
14210;DHT22;7188;56.070;12.698;2022-10-16T01:49:34;12.40;99.90
14210;DHT22;7188;56.070;12.698;2022-10-16T01:52:04;12.30;99.90
14210;DHT22;7188;56.070;12.698;2022-10-16T01:54:32;12.30;99.90
14210;DHT22;7188;56.070;12.698;2022-10-16T01:56:59;12.40;99.90
14210;DHT22;7188;56.070;12.698;2022-10-16T01:59:26;12.30;99.90
14210;DHT22;7188;56.070;12.698;2022-10-16T02:01:58;12.30;99.90
14210;DHT22;7188;56.070;12.698;2022-10-16T02:04:32;12.30;99.90
14210;DHT22;7188;56.070;12.698;2022-10-16T02:06:58;12.30;99.90
14210;DHT22;7188;56.070;12.698;2022-10-16T02:09:24;12.30;99.90
14210;DHT22;7188;56.070;12.698;2022-10-16T02:11:53;12.30;99.90
14210;DHT22;7188;56.070;12.698;2022-10-16T02:14:19;12.30;99.90
14210;DHT22;7188;56.070;12.698;2022-10-16T02:16:46;12.30;99.90
14210;DHT22;7188;56.070;12.698;2022-10-16T02:19:15;12.30;99.90
14210;DHT22;7188;56.070;12.698;2022-10-16T02:21:47;12.30;99.90
14210;DHT22;7188;56.070;12.698;2022-10-16T02:24:28;12.30;99.90
14210;DHT22;7188;56.070;12.698;2022-10-16T02:29:26;12.40;99.90
14210;DHT22;7188;56.070;12.698;2022-10-16T02:32:01;12.30;99.90
14210;DHT22;7188;56.070;12.698;2022-10-16T02:34:30;12.40;99.90
14210;DHT22;7188;56.070;12.698;2022-10-16T02:36:57;12.40;99.90
14210;DHT22;7188;56.070;12.698;2022-10-16T02:39:24;12.40;99.90
14210;DHT22;7188;56.070;12.698;2022-10-16T02:41:50;12.40;99.90
14210;DHT22;7188;56.070;12.698;2022-10-16T02:44:15;12.40;99.90
14210;DHT22;7188;56.070;12.698;2022-10-16T02:46:41;12.40;99.90
14210;DHT22;7188;56.070;12.698;2022-10-16T02:49:07;12.30;99.90
14210;DHT22;7188;56.070;12.698;2022-10-16T02:51:32;12.30;99.90
14210;DHT22;7188;56.070;12.698;2022-10-16T02:53:58;12.30;99.90
14210;DHT22;7188;56.070;12.698;2022-10-16T02:56:23;12.30;99.90
14210;DHT22;7188;56.070;12.698;2022-10-16T02:58:49;12.30;99.90
14210;DHT22;7188;56.070;12.698;2022-10-16T03:01:15;12.30;99.90
14210;DHT22;7188;56.070;12.698;2022-10-16T03:03:42;12.20;99.90
14210;DHT22;7188;56.070;12.698;2022-10-16T03:06:08;12.20;99.90
14210;DHT22;7188;56.070;12.698;2022-10-16T03:08:35;12.10;99.90
14210;DHT22;7188;56.070;12.698;2022-10-16T03:11:01;12.10;99.90
14210;DHT22;7188;56.070;12.698;2022-10-16T03:13:26;12.10;99.90
14210;DHT22;7188;56.070;12.698;2022-10-16T03:15:52;12.10;99.90
14210;DHT22;7188;56.070;12.698;2022-10-16T03:18:17;12.10;99.90
14210;DHT22;7188;56.070;12.698;2022-10-16T03:20:43;12.00;99.90
14210;DHT22;7188;56.070;12.698;2022-10-16T03:23:09;12.00;99.90
14210;DHT22;7188;56.070;12.698;2022-10-16T03:25:35;12.10;99.90
14210;DHT22;7188;56.070;12.698;2022-10-16T03:28:01;12.00;99.90
14210;DHT22;7188;56.070;12.698;2022-10-16T03:30:27;12.00;99.90
14210;DHT22;7188;56.070;12.698;2022-10-16T03:32:52;12.00;99.90
14210;DHT22;7188;56.070;12.698;2022-10-16T03:35:23;12.00;99.90
14210;DHT22;7188;56.070;12.698;2022-10-16T03:37:50;12.00;99.90
14210;DHT22;7188;56.070;12.698;2022-10-16T03:40:16;12.00;99.90
14210;DHT22;7188;56.070;12.698;2022-10-16T03:42:43;12.00;99.90
14210;DHT22;7188;56.070;12.698;2022-10-16T03:45:11;12.00;99.90
14210;DHT22;7188;56.070;12.698;2022-10-16T03:47:36;12.00;99.90
14210;DHT22;7188;56.070;12.698;2022-10-16T03:50:03;12.00;99.90
14210;DHT22;7188;56.070;12.698;2022-10-16T03:52:29;12.00;99.90
14210;DHT22;7188;56.070;12.698;2022-10-16T03:54:54;12.00;99.90
14210;DHT22;7188;56.070;12.698;2022-10-16T03:57:20;12.00;99.90
14210;DHT22;7188;56.070;12.698;2022-10-16T03:59:46;12.00;99.90
14210;DHT22;7188;56.070;12.698;2022-10-16T04:02:12;12.00;99.90
14210;DHT22;7188;56.070;12.698;2022-10-16T04:04:37;12.00;99.90
14210;DHT22;7188;56.070;12.698;2022-10-16T04:07:03;12.10;99.90
14210;DHT22;7188;56.070;12.698;2022-10-16T04:09:29;12.10;99.90
14210;DHT22;7188;56.070;12.698;2022-10-16T04:11:54;12.20;99.90
14210;DHT22;7188;56.070;12.698;2022-10-16T04:14:20;12.20;99.90
14210;DHT22;7188;56.070;12.698;2022-10-16T04:16:46;12.20;99.90
14210;DHT22;7188;56.070;12.698;2022-10-16T04:19:11;12.30;99.90
14210;DHT22;7188;56.070;12.698;2022-10-16T04:21:37;12.30;99.90
14210;DHT22;7188;56.070;12.698;2022-10-16T04:24:03;12.30;99.90
14210;DHT22;7188;56.070;12.698;2022-10-16T04:26:29;12.30;99.90
14210;DHT22;7188;56.070;12.698;2022-10-16T04:28:55;12.40;99.90
14210;DHT22;7188;56.070;12.698;2022-10-16T04:31:21;12.40;99.90
14210;DHT22;7188;56.070;12.698;2022-10-16T04:33:47;12.40;99.90
14210;DHT22;7188;56.070;12.698;2022-10-16T04:36:13;12.40;99.90
14210;DHT22;7188;56.070;12.698;2022-10-16T04:38:38;12.40;99.90
14210;DHT22;7188;56.070;12.698;2022-10-16T04:41:06;12.40;99.90
14210;DHT22;7188;56.070;12.698;2022-10-16T04:43:32;12.40;99.90
14210;DHT22;7188;56.070;12.698;2022-10-16T04:45:57;12.40;99.90
14210;DHT22;7188;56.070;12.698;2022-10-16T04:48:23;12.40;99.90
14210;DHT22;7188;56.070;12.698;2022-10-16T04:50:49;12.40;99.90
14210;DHT22;7188;56.070;12.698;2022-10-16T04:53:14;12.40;99.90
14210;DHT22;7188;56.070;12.698;2022-10-16T04:55:40;12.40;99.90
14210;DHT22;7188;56.070;12.698;2022-10-16T04:58:06;12.30;99.90
14210;DHT22;7188;56.070;12.698;2022-10-16T05:00:32;12.20;99.90
14210;DHT22;7188;56.070;12.698;2022-10-16T05:02:58;12.20;99.90
14210;DHT22;7188;56.070;12.698;2022-10-16T05:05:26;12.20;99.90
14210;DHT22;7188;56.070;12.698;2022-10-16T05:07:51;12.20;99.90
14210;DHT22;7188;56.070;12.698;2022-10-16T05:10:17;12.30;99.90
14210;DHT22;7188;56.070;12.698;2022-10-16T05:12:43;12.30;99.90
14210;DHT22;7188;56.070;12.698;2022-10-16T05:15:09;12.30;99.90
14210;DHT22;7188;56.070;12.698;2022-10-16T05:17:34;12.30;99.90
14210;DHT22;7188;56.070;12.698;2022-10-16T05:20:00;12.40;99.90
14210;DHT22;7188;56.070;12.698;2022-10-16T05:22:26;12.40;99.90
14210;DHT22;7188;56.070;12.698;2022-10-16T05:24:51;12.40;99.90
14210;DHT22;7188;56.070;12.698;2022-10-16T05:27:17;12.40;99.90
14210;DHT22;7188;56.070;12.698;2022-10-16T05:29:46;12.40;99.90
14210;DHT22;7188;56.070;12.698;2022-10-16T05:32:13;12.40;99.90
14210;DHT22;7188;56.070;12.698;2022-10-16T05:34:39;12.50;99.90
14210;DHT22;7188;56.070;12.698;2022-10-16T05:37:05;12.50;99.90
14210;DHT22;7188;56.070;12.698;2022-10-16T05:39:30;12.50;99.90
14210;DHT22;7188;56.070;12.698;2022-10-16T05:41:56;12.50;99.90
14210;DHT22;7188;56.070;12.698;2022-10-16T05:44:21;12.50;99.90
14210;DHT22;7188;56.070;12.698;2022-10-16T05:46:47;12.50;99.90
14210;DHT22;7188;56.070;12.698;2022-10-16T05:49:13;12.50;99.90
14210;DHT22;7188;56.070;12.698;2022-10-16T05:51:38;12.50;99.90
14210;DHT22;7188;56.070;12.698;2022-10-16T05:54:04;12.50;99.90
14210;DHT22;7188;56.070;12.698;2022-10-16T05:56:29;12.50;99.90
14210;DHT22;7188;56.070;12.698;2022-10-16T05:58:55;12.50;99.90
14210;DHT22;7188;56.070;12.698;2022-10-16T06:01:21;12.50;99.90
14210;DHT22;7188;56.070;12.698;2022-10-16T06:03:50;12.50;99.90
14210;DHT22;7188;56.070;12.698;2022-10-16T06:06:20;12.50;99.90
14210;DHT22;7188;56.070;12.698;2022-10-16T06:08:46;12.50;99.90
14210;DHT22;7188;56.070;12.698;2022-10-16T06:11:16;12.50;99.90
14210;DHT22;7188;56.070;12.698;2022-10-16T06:13:41;12.50;99.90
14210;DHT22;7188;56.070;12.698;2022-10-16T06:16:09;12.60;99.90
14210;DHT22;7188;56.070;12.698;2022-10-16T06:18:34;12.60;99.90
14210;DHT22;7188;56.070;12.698;2022-10-16T06:21:19;12.50;99.90
14210;DHT22;7188;56.070;12.698;2022-10-16T06:23:46;12.50;99.90
14210;DHT22;7188;56.070;12.698;2022-10-16T06:26:14;12.50;99.90
14210;DHT22;7188;56.070;12.698;2022-10-16T06:28:40;12.50;99.90
14210;DHT22;7188;56.070;12.698;2022-10-16T06:31:07;12.50;99.90
14210;DHT22;7188;56.070;12.698;2022-10-16T06:33:33;12.40;99.90
14210;DHT22;7188;56.070;12.698;2022-10-16T06:36:13;12.50;99.90
14210;DHT22;7188;56.070;12.698;2022-10-16T06:38:40;12.50;99.90
14210;DHT22;7188;56.070;12.698;2022-10-16T06:41:07;12.50;99.90
14210;DHT22;7188;56.070;12.698;2022-10-16T06:43:33;12.60;99.90
14210;DHT22;7188;56.070;12.698;2022-10-16T06:46:03;12.60;99.90
14210;DHT22;7188;56.070;12.698;2022-10-16T06:48:29;12.70;99.90
14210;DHT22;7188;56.070;12.698;2022-10-16T06:51:06;12.70;99.90
14210;DHT22;7188;56.070;12.698;2022-10-16T06:53:33;12.70;99.90
14210;DHT22;7188;56.070;12.698;2022-10-16T06:56:13;12.70;99.90
14210;DHT22;7188;56.070;12.698;2022-10-16T06:58:40;12.80;99.90
14210;DHT22;7188;56.070;12.698;2022-10-16T07:01:06;12.80;99.90
14210;DHT22;7188;56.070;12.698;2022-10-16T07:03:32;12.90;99.90
14210;DHT22;7188;56.070;12.698;2022-10-16T07:06:02;12.90;99.90
14210;DHT22;7188;56.070;12.698;2022-10-16T07:08:34;12.80;99.90
14210;DHT22;7188;56.070;12.698;2022-10-16T07:11:05;12.80;99.90
14210;DHT22;7188;56.070;12.698;2022-10-16T07:13:33;12.80;99.90
14210;DHT22;7188;56.070;12.698;2022-10-16T07:16:08;12.90;99.90
14210;DHT22;7188;56.070;12.698;2022-10-16T07:18:35;12.90;99.90
14210;DHT22;7188;56.070;12.698;2022-10-16T07:21:09;13.00;99.90
14210;DHT22;7188;56.070;12.698;2022-10-16T07:23:35;13.00;99.90
14210;DHT22;7188;56.070;12.698;2022-10-16T07:26:02;13.00;99.90
14210;DHT22;7188;56.070;12.698;2022-10-16T07:28:28;13.10;99.90
14210;DHT22;7188;56.070;12.698;2022-10-16T07:30:54;13.10;99.90
14210;DHT22;7188;56.070;12.698;2022-10-16T07:33:20;13.10;99.90
14210;DHT22;7188;56.070;12.698;2022-10-16T07:35:52;13.10;99.90
14210;DHT22;7188;56.070;12.698;2022-10-16T07:38:18;13.10;99.90
14210;DHT22;7188;56.070;12.698;2022-10-16T07:40:44;13.20;99.90
14210;DHT22;7188;56.070;12.698;2022-10-16T07:43:10;13.20;99.90
14210;DHT22;7188;56.070;12.698;2022-10-16T07:45:36;13.20;99.90
14210;DHT22;7188;56.070;12.698;2022-10-16T07:48:02;13.20;99.90
14210;DHT22;7188;56.070;12.698;2022-10-16T07:50:27;13.20;99.90
14210;DHT22;7188;56.070;12.698;2022-10-16T07:52:53;13.20;99.90
14210;DHT22;7188;56.070;12.698;2022-10-16T07:55:19;13.20;99.90
14210;DHT22;7188;56.070;12.698;2022-10-16T07:57:44;13.30;99.90
14210;DHT22;7188;56.070;12.698;2022-10-16T08:00:10;13.30;99.90
14210;DHT22;7188;56.070;12.698;2022-10-16T08:02:40;13.40;99.90
14210;DHT22;7188;56.070;12.698;2022-10-16T08:05:06;13.40;99.90
14210;DHT22;7188;56.070;12.698;2022-10-16T08:07:32;13.40;99.90
14210;DHT22;7188;56.070;12.698;2022-10-16T08:09:57;13.50;99.90
14210;DHT22;7188;56.070;12.698;2022-10-16T08:12:24;13.60;99.90
14210;DHT22;7188;56.070;12.698;2022-10-16T08:14:50;13.60;99.90
14210;DHT22;7188;56.070;12.698;2022-10-16T08:17:16;13.60;99.90
14210;DHT22;7188;56.070;12.698;2022-10-16T08:19:48;13.60;99.90
14210;DHT22;7188;56.070;12.698;2022-10-16T08:22:15;13.60;99.90
14210;DHT22;7188;56.070;12.698;2022-10-16T08:24:41;13.70;99.90
14210;DHT22;7188;56.070;12.698;2022-10-16T08:27:07;13.70;99.90
14210;DHT22;7188;56.070;12.698;2022-10-16T08:29:34;13.70;99.90
14210;DHT22;7188;56.070;12.698;2022-10-16T08:31:59;13.80;99.90
14210;DHT22;7188;56.070;12.698;2022-10-16T08:34:25;13.80;99.90
14210;DHT22;7188;56.070;12.698;2022-10-16T08:36:53;13.80;99.90
14210;DHT22;7188;56.070;12.698;2022-10-16T08:39:18;13.80;99.90
14210;DHT22;7188;56.070;12.698;2022-10-16T08:45:31;13.90;99.90
14210;DHT22;7188;56.070;12.698;2022-10-16T08:50:38;14.00;99.90
14210;DHT22;7188;56.070;12.698;2022-10-16T08:53:05;14.00;99.90
14210;DHT22;7188;56.070;12.698;2022-10-16T08:55:38;14.00;99.90
14210;DHT22;7188;56.070;12.698;2022-10-16T08:58:30;14.00;99.90
14210;DHT22;7188;56.070;12.698;2022-10-16T09:01:00;14.10;99.90
14210;DHT22;7188;56.070;12.698;2022-10-16T09:06:09;14.10;99.90
14210;DHT22;7188;56.070;12.698;2022-10-16T09:13:57;14.30;99.90
14210;DHT22;7188;56.070;12.698;2022-10-16T09:16:41;14.40;99.90
14210;DHT22;7188;56.070;12.698;2022-10-16T09:21:55;14.40;63.30
14210;DHT22;7188;56.070;12.698;2022-10-16T09:24:26;14.50;78.90
14210;DHT22;7188;56.070;12.698;2022-10-16T09:26:52;14.50;34.40
14210;DHT22;7188;56.070;12.698;2022-10-16T09:29:19;14.50;1.00
14210;DHT22;7188;56.070;12.698;2022-10-16T09:31:46;14.60;1.00
14210;DHT22;7188;56.070;12.698;2022-10-16T09:34:30;14.60;1.00
14210;DHT22;7188;56.070;12.698;2022-10-16T09:36:57;14.60;1.00
14210;DHT22;7188;56.070;12.698;2022-10-16T09:39:24;14.70;1.00
14210;DHT22;7188;56.070;12.698;2022-10-16T09:41:50;14.70;1.00
14210;DHT22;7188;56.070;12.698;2022-10-16T09:44:28;14.70;1.00
14210;DHT22;7188;56.070;12.698;2022-10-16T09:47:15;14.80;1.00
14210;DHT22;7188;56.070;12.698;2022-10-16T09:50:00;14.80;1.00
14210;DHT22;7188;56.070;12.698;2022-10-16T09:52:31;14.80;1.00
14210;DHT22;7188;56.070;12.698;2022-10-16T09:54:59;14.80;1.00
14210;DHT22;7188;56.070;12.698;2022-10-16T09:57:25;14.90;1.00
14210;DHT22;7188;56.070;12.698;2022-10-16T09:59:52;15.00;1.00
14210;DHT22;7188;56.070;12.698;2022-10-16T10:02:22;15.10;99.90
14210;DHT22;7188;56.070;12.698;2022-10-16T10:04:52;15.10;99.90
14210;DHT22;7188;56.070;12.698;2022-10-16T10:07:42;15.10;99.90
14210;DHT22;7188;56.070;12.698;2022-10-16T10:10:25;15.10;99.90
14210;DHT22;7188;56.070;12.698;2022-10-16T10:12:52;15.10;99.90
14210;DHT22;7188;56.070;12.698;2022-10-16T10:15:18;15.10;99.90
14210;DHT22;7188;56.070;12.698;2022-10-16T10:17:52;15.10;99.90
14210;DHT22;7188;56.070;12.698;2022-10-16T10:20:31;15.10;99.90
14210;DHT22;7188;56.070;12.698;2022-10-16T10:26:31;15.20;34.20
14210;DHT22;7188;56.070;12.698;2022-10-16T10:31:21;15.40;1.00
14210;DHT22;7188;56.070;12.698;2022-10-16T10:36:40;15.60;99.90
14210;DHT22;7188;56.070;12.698;2022-10-16T10:39:22;15.50;1.00
14210;DHT22;7188;56.070;12.698;2022-10-16T10:42:02;15.60;1.00
14210;DHT22;7188;56.070;12.698;2022-10-16T10:52:53;15.80;1.00
14210;DHT22;7188;56.070;12.698;2022-10-16T10:59:08;15.90;99.90
14210;DHT22;7188;56.070;12.698;2022-10-16T11:02:15;15.90;1.00
14210;DHT22;7188;56.070;12.698;2022-10-16T11:07:33;15.90;1.00
14210;DHT22;7188;56.070;12.698;2022-10-16T11:10:28;15.90;1.00
14210;DHT22;7188;56.070;12.698;2022-10-16T11:13:14;15.90;1.00
14210;DHT22;7188;56.070;12.698;2022-10-16T11:15:43;16.00;31.90
14210;DHT22;7188;56.070;12.698;2022-10-16T11:18:18;15.90;1.00
14210;DHT22;7188;56.070;12.698;2022-10-16T11:21:07;16.00;1.00
14210;DHT22;7188;56.070;12.698;2022-10-16T11:23:57;16.00;99.90
14210;DHT22;7188;56.070;12.698;2022-10-16T11:26:27;16.10;99.90
14210;DHT22;7188;56.070;12.698;2022-10-16T11:28:55;16.20;99.90
14210;DHT22;7188;56.070;12.698;2022-10-16T11:31:52;16.30;99.90
14210;DHT22;7188;56.070;12.698;2022-10-16T11:34:42;16.30;94.10
14210;DHT22;7188;56.070;12.698;2022-10-16T11:37:33;16.30;99.90
14210;DHT22;7188;56.070;12.698;2022-10-16T11:40:19;16.30;1.00
14210;DHT22;7188;56.070;12.698;2022-10-16T11:42:50;16.20;1.00
14210;DHT22;7188;56.070;12.698;2022-10-16T11:45:42;16.20;1.00
14210;DHT22;7188;56.070;12.698;2022-10-16T11:51:23;16.30;1.00
14210;DHT22;7188;56.070;12.698;2022-10-16T11:53:59;16.50;1.00
14210;DHT22;7188;56.070;12.698;2022-10-16T11:56:28;16.60;99.90
14210;DHT22;7188;56.070;12.698;2022-10-16T11:59:13;16.60;99.90
14210;DHT22;7188;56.070;12.698;2022-10-16T12:04:48;16.60;99.90
14210;DHT22;7188;56.070;12.698;2022-10-16T12:07:19;16.50;99.90
14210;DHT22;7188;56.070;12.698;2022-10-16T12:09:48;16.40;99.90
14210;DHT22;7188;56.070;12.698;2022-10-16T12:12:43;16.20;99.90
14210;DHT22;7188;56.070;12.698;2022-10-16T12:15:28;16.10;99.90
14210;DHT22;7188;56.070;12.698;2022-10-16T12:17:55;16.10;99.90
14210;DHT22;7188;56.070;12.698;2022-10-16T12:20:27;16.00;99.90
14210;DHT22;7188;56.070;12.698;2022-10-16T12:25:27;16.20;99.90
14210;DHT22;7188;56.070;12.698;2022-10-16T12:28:05;16.20;99.90
14210;DHT22;7188;56.070;12.698;2022-10-16T12:30:36;16.20;99.90
14210;DHT22;7188;56.070;12.698;2022-10-16T12:33:05;16.20;1.00
14210;DHT22;7188;56.070;12.698;2022-10-16T12:35:42;16.10;1.00
14210;DHT22;7188;56.070;12.698;2022-10-16T12:38:26;16.00;37.50
14210;DHT22;7188;56.070;12.698;2022-10-16T12:41:00;16.10;99.90
14210;DHT22;7188;56.070;12.698;2022-10-16T12:43:42;16.20;99.90
14210;DHT22;7188;56.070;12.698;2022-10-16T12:48:34;16.40;64.90
14210;DHT22;7188;56.070;12.698;2022-10-16T13:08:35;16.20;1.00
14210;DHT22;7188;56.070;12.698;2022-10-16T13:22:30;11.90;99.90
14210;DHT22;7188;56.070;12.698;2022-10-16T13:28:04;11.60;1.00
14210;DHT22;7188;56.070;12.698;2022-10-16T13:35:57;11.40;99.90
14210;DHT22;7188;56.070;12.698;2022-10-16T13:38:29;11.50;99.90
14210;DHT22;7188;56.070;12.698;2022-10-16T13:43:42;11.80;99.90
14210;DHT22;7188;56.070;12.698;2022-10-16T13:46:23;11.90;99.90
14210;DHT22;7188;56.070;12.698;2022-10-16T13:49:04;12.00;99.90
14210;DHT22;7188;56.070;12.698;2022-10-16T13:51:31;12.10;89.00
14210;DHT22;7188;56.070;12.698;2022-10-16T13:53:58;12.10;16.20
14210;DHT22;7188;56.070;12.698;2022-10-16T13:56:29;12.20;25.20
14210;DHT22;7188;56.070;12.698;2022-10-16T13:59:06;12.30;13.30
14210;DHT22;7188;56.070;12.698;2022-10-16T14:01:47;12.30;38.90
14210;DHT22;7188;56.070;12.698;2022-10-16T14:04:13;12.40;55.60
14210;DHT22;7188;56.070;12.698;2022-10-16T14:06:49;12.50;85.60
14210;DHT22;7188;56.070;12.698;2022-10-16T14:09:24;12.50;71.20
14210;DHT22;7188;56.070;12.698;2022-10-16T14:12:10;12.60;31.50
14210;DHT22;7188;56.070;12.698;2022-10-16T14:14:45;12.60;2.90
14210;DHT22;7188;56.070;12.698;2022-10-16T14:17:27;12.70;1.00
14210;DHT22;7188;56.070;12.698;2022-10-16T14:19:56;12.70;1.00
14210;DHT22;7188;56.070;12.698;2022-10-16T14:22:38;12.70;1.00
14210;DHT22;7188;56.070;12.698;2022-10-16T14:33:39;12.90;1.00
14210;DHT22;7188;56.070;12.698;2022-10-16T14:36:11;12.90;1.00
14210;DHT22;7188;56.070;12.698;2022-10-16T14:39:03;12.90;1.00
14210;DHT22;7188;56.070;12.698;2022-10-16T14:41:31;13.00;1.00
14210;DHT22;7188;56.070;12.698;2022-10-16T14:44:04;13.00;1.00
14210;DHT22;7188;56.070;12.698;2022-10-16T14:46:36;13.00;1.00
14210;DHT22;7188;56.070;12.698;2022-10-16T14:49:16;13.00;1.00
14210;DHT22;7188;56.070;12.698;2022-10-16T14:51:43;13.00;1.00
14210;DHT22;7188;56.070;12.698;2022-10-16T14:54:11;13.00;1.00
14210;DHT22;7188;56.070;12.698;2022-10-16T14:56:56;13.00;1.00
14210;DHT22;7188;56.070;12.698;2022-10-16T14:59:35;13.00;1.00
14210;DHT22;7188;56.070;12.698;2022-10-16T15:04:45;13.10;1.00
14210;DHT22;7188;56.070;12.698;2022-10-16T15:07:11;13.00;1.00
14210;DHT22;7188;56.070;12.698;2022-10-16T15:09:36;13.00;1.00
14210;DHT22;7188;56.070;12.698;2022-10-16T15:12:02;13.00;1.00
14210;DHT22;7188;56.070;12.698;2022-10-16T15:14:28;13.00;1.00
14210;DHT22;7188;56.070;12.698;2022-10-16T15:16:53;13.00;1.00
14210;DHT22;7188;56.070;12.698;2022-10-16T15:19:19;13.00;1.00
14210;DHT22;7188;56.070;12.698;2022-10-16T15:21:45;13.00;1.00
14210;DHT22;7188;56.070;12.698;2022-10-16T15:24:14;12.90;1.00
14210;DHT22;7188;56.070;12.698;2022-10-16T15:26:40;12.90;1.00
14210;DHT22;7188;56.070;12.698;2022-10-16T15:29:05;12.90;1.00
14210;DHT22;7188;56.070;12.698;2022-10-16T15:31:31;12.90;1.00
14210;DHT22;7188;56.070;12.698;2022-10-16T15:33:57;12.90;1.00
14210;DHT22;7188;56.070;12.698;2022-10-16T15:36:34;12.90;1.00
14210;DHT22;7188;56.070;12.698;2022-10-16T15:39:10;12.90;1.00
14210;DHT22;7188;56.070;12.698;2022-10-16T15:41:37;12.90;1.00
14210;DHT22;7188;56.070;12.698;2022-10-16T15:44:03;12.80;1.00
14210;DHT22;7188;56.070;12.698;2022-10-16T15:46:29;12.80;1.00
14210;DHT22;7188;56.070;12.698;2022-10-16T15:48:58;12.80;1.00
14210;DHT22;7188;56.070;12.698;2022-10-16T15:51:25;12.80;1.00
14210;DHT22;7188;56.070;12.698;2022-10-16T15:53:52;12.80;1.00
14210;DHT22;7188;56.070;12.698;2022-10-16T15:56:19;12.80;1.00
14210;DHT22;7188;56.070;12.698;2022-10-16T15:58:44;12.80;1.00
14210;DHT22;7188;56.070;12.698;2022-10-16T16:01:10;12.70;1.00
14210;DHT22;7188;56.070;12.698;2022-10-16T16:03:38;12.70;1.00
14210;DHT22;7188;56.070;12.698;2022-10-16T16:06:07;12.70;1.00
14210;DHT22;7188;56.070;12.698;2022-10-16T16:08:33;12.70;1.00
14210;DHT22;7188;56.070;12.698;2022-10-16T16:11:01;12.60;1.00
14210;DHT22;7188;56.070;12.698;2022-10-16T16:13:27;12.60;1.00
14210;DHT22;7188;56.070;12.698;2022-10-16T16:15:53;12.60;1.00
14210;DHT22;7188;56.070;12.698;2022-10-16T16:18:19;12.60;1.00
14210;DHT22;7188;56.070;12.698;2022-10-16T16:20:45;12.50;1.00
14210;DHT22;7188;56.070;12.698;2022-10-16T16:23:11;12.50;1.00
14210;DHT22;7188;56.070;12.698;2022-10-16T16:28:41;12.40;1.00
14210;DHT22;7188;56.070;12.698;2022-10-16T16:31:08;12.40;1.00
14210;DHT22;7188;56.070;12.698;2022-10-16T16:33:33;12.40;1.00
14210;DHT22;7188;56.070;12.698;2022-10-16T16:36:03;12.40;1.00
14210;DHT22;7188;56.070;12.698;2022-10-16T16:38:32;12.40;1.00
14210;DHT22;7188;56.070;12.698;2022-10-16T16:40:58;12.40;1.00
14210;DHT22;7188;56.070;12.698;2022-10-16T16:43:25;12.40;1.00
14210;DHT22;7188;56.070;12.698;2022-10-16T16:45:52;12.40;1.00
14210;DHT22;7188;56.070;12.698;2022-10-16T16:48:18;12.30;1.00
14210;DHT22;7188;56.070;12.698;2022-10-16T16:50:44;12.30;99.90
14210;DHT22;7188;56.070;12.698;2022-10-16T16:53:09;12.30;99.90
14210;DHT22;7188;56.070;12.698;2022-10-16T16:55:47;12.30;83.70
14210;DHT22;7188;56.070;12.698;2022-10-16T16:58:13;12.30;1.00
14210;DHT22;7188;56.070;12.698;2022-10-16T17:00:45;12.30;1.00
14210;DHT22;7188;56.070;12.698;2022-10-16T17:03:11;12.30;1.00
14210;DHT22;7188;56.070;12.698;2022-10-16T17:05:36;12.20;1.00
14210;DHT22;7188;56.070;12.698;2022-10-16T17:08:02;12.20;99.90
14210;DHT22;7188;56.070;12.698;2022-10-16T17:10:28;12.20;1.00
14210;DHT22;7188;56.070;12.698;2022-10-16T17:12:53;12.20;99.90
14210;DHT22;7188;56.070;12.698;2022-10-16T17:15:19;12.20;99.90
14210;DHT22;7188;56.070;12.698;2022-10-16T17:17:44;12.20;99.90
14210;DHT22;7188;56.070;12.698;2022-10-16T17:20:10;12.20;99.90
14210;DHT22;7188;56.070;12.698;2022-10-16T17:22:36;12.20;1.00
14210;DHT22;7188;56.070;12.698;2022-10-16T17:25:01;12.20;99.90
14210;DHT22;7188;56.070;12.698;2022-10-16T17:27:28;12.10;1.00
14210;DHT22;7188;56.070;12.698;2022-10-16T17:29:54;12.20;99.90
14210;DHT22;7188;56.070;12.698;2022-10-16T17:32:20;12.20;99.90
14210;DHT22;7188;56.070;12.698;2022-10-16T17:34:46;12.20;99.90
14210;DHT22;7188;56.070;12.698;2022-10-16T17:37:12;12.20;99.90
14210;DHT22;7188;56.070;12.698;2022-10-16T17:39:37;12.20;99.90
14210;DHT22;7188;56.070;12.698;2022-10-16T17:42:03;12.20;51.60
14210;DHT22;7188;56.070;12.698;2022-10-16T17:44:28;12.10;1.00
14210;DHT22;7188;56.070;12.698;2022-10-16T17:46:54;12.10;1.00
14210;DHT22;7188;56.070;12.698;2022-10-16T17:49:20;12.10;1.00